createdAt,value
2023-01-25T00:00:54.576Z,9.60
2023-01-25T00:03:22.482Z,9.40
2023-01-25T00:05:50.520Z,9.25
2023-01-25T00:08:21.162Z,10.05
2023-01-25T00:10:52.276Z,10.00
2023-01-25T00:13:20.218Z,9.68
2023-01-25T00:15:48.073Z,9.65
2023-01-25T00:18:15.966Z,10.02
2023-01-25T00:20:43.844Z,9.77
2023-01-25T00:23:11.816Z,9.40
2023-01-25T00:25:41.038Z,9.73
2023-01-25T00:28:08.963Z,9.88
2023-01-25T00:30:36.978Z,9.23
2023-01-25T00:33:28.364Z,9.82
2023-01-25T00:35:58.283Z,8.63
2023-01-25T00:38:31.005Z,9.38
2023-01-25T00:41:00.376Z,9.80
2023-01-25T00:43:29.367Z,9.60
2023-01-25T00:46:01.729Z,9.57
2023-01-25T00:48:30.903Z,9.57
2023-01-25T00:51:01.721Z,10.32
2023-01-25T00:53:29.901Z,10.70
2023-01-25T00:55:58.092Z,10.25
2023-01-25T00:58:27.904Z,10.70
2023-01-25T01:00:57.076Z,10.43
2023-01-25T01:03:25.401Z,11.07
2023-01-25T01:06:01.499Z,10.45
2023-01-25T01:08:29.570Z,10.70
2023-01-25T01:11:01.767Z,10.77
2023-01-25T01:13:31.636Z,9.57
2023-01-25T01:16:03.195Z,11.30
2023-01-25T01:18:34.557Z,10.23
2023-01-25T01:21:03.296Z,10.05
2023-01-25T01:23:32.181Z,10.88
2023-01-25T01:26:01.187Z,10.32
2023-01-25T01:28:31.216Z,11.52
2023-01-25T01:31:01.401Z,11.32
2023-01-25T01:33:35.178Z,10.48
2023-01-25T01:36:08.292Z,10.55
2023-01-25T01:38:36.236Z,10.48
2023-01-25T01:41:04.469Z,10.43
2023-01-25T01:43:35.310Z,10.07
2023-01-25T01:46:05.041Z,11.80
2023-01-25T01:48:41.761Z,11.00
2023-01-25T01:51:19.475Z,11.82
2023-01-25T01:53:52.175Z,11.38
2023-01-25T01:56:24.993Z,12.27
2023-01-25T01:58:57.755Z,11.20
2023-01-25T02:01:26.082Z,11.55
2023-01-25T02:03:55.080Z,11.50
2023-01-25T02:06:32.740Z,11.85
2023-01-25T02:09:02.741Z,10.73
2023-01-25T02:11:33.679Z,12.52
2023-01-25T02:14:04.350Z,12.52
2023-01-25T02:16:32.592Z,12.05
2023-01-25T02:19:02.664Z,12.40
2023-01-25T02:21:38.058Z,11.45
2023-01-25T02:24:13.551Z,12.20
2023-01-25T02:26:42.940Z,11.77
2023-01-25T02:29:11.760Z,12.48
2023-01-25T02:31:39.812Z,11.88
2023-01-25T02:34:07.934Z,12.40
2023-01-25T02:36:36.521Z,12.50
2023-01-25T02:39:09.989Z,12.20
2023-01-25T02:41:40.388Z,11.82
2023-01-25T02:44:14.045Z,12.32
2023-01-25T02:46:45.027Z,11.85
2023-01-25T02:49:13.913Z,12.20
2023-01-25T02:51:47.542Z,12.95
2023-01-25T02:56:43.724Z,12.07
2023-01-25T02:59:14.280Z,12.18
2023-01-25T03:01:47.079Z,12.98
2023-01-25T03:04:15.788Z,12.43
2023-01-25T03:06:43.947Z,12.00
2023-01-25T03:09:13.268Z,11.73
2023-01-25T03:14:15.187Z,11.55
2023-01-25T03:16:43.105Z,11.43
2023-01-25T03:19:11.643Z,11.45
2023-01-25T03:21:41.760Z,11.50
2023-01-25T03:24:11.577Z,12.95
2023-01-25T03:27:02.458Z,12.70
2023-01-25T03:29:47.244Z,12.75
2023-01-25T03:32:20.518Z,12.30
2023-01-25T03:34:49.839Z,12.27
2023-01-25T03:37:19.586Z,12.80
2023-01-25T03:39:49.083Z,11.50
2023-01-25T03:42:17.833Z,12.35
2023-01-25T03:44:47.275Z,11.27
2023-01-25T03:47:16.238Z,11.90
2023-01-25T03:49:44.349Z,11.30
2023-01-25T03:52:12.711Z,11.10
2023-01-25T03:54:42.695Z,11.00
2023-01-25T03:57:12.940Z,12.25
2023-01-25T03:59:53.287Z,12.75
2023-01-25T04:02:21.741Z,11.18
2023-01-25T04:04:49.692Z,11.77
2023-01-25T04:07:21.002Z,13.02
2023-01-25T04:09:50.237Z,12.85
2023-01-25T04:12:19.043Z,12.93
2023-01-25T04:14:47.528Z,12.40
2023-01-25T04:17:22.705Z,12.93
2023-01-25T04:20:02.676Z,12.82
2023-01-25T04:22:37.098Z,12.02
2023-01-25T04:25:08.235Z,9.60
2023-01-25T04:27:39.514Z,10.20
2023-01-25T04:30:12.838Z,7.28
2023-01-25T04:32:43.331Z,7.55
2023-01-25T04:35:21.552Z,8.23
2023-01-25T04:37:54.985Z,8.43
2023-01-25T04:40:25.361Z,7.68
2023-01-25T04:42:53.455Z,7.95
2023-01-25T04:45:21.288Z,8.40
2023-01-25T04:47:51.310Z,8.05
2023-01-25T04:50:19.201Z,8.23
2023-01-25T04:52:47.757Z,8.43
2023-01-25T04:55:15.883Z,8.57
2023-01-25T04:57:45.742Z,9.63
2023-01-25T05:00:14.365Z,9.65
2023-01-25T05:02:43.150Z,9.13
2023-01-25T05:05:12.927Z,8.00
2023-01-25T05:07:41.066Z,7.65
2023-01-25T05:10:11.224Z,7.65
2023-01-25T05:12:45.858Z,7.38
2023-01-25T05:15:14.233Z,7.63
2023-01-25T05:17:42.205Z,7.70
2023-01-25T05:20:13.740Z,8.13
2023-01-25T05:22:41.831Z,7.05
2023-01-25T05:25:30.473Z,7.25
2023-01-25T05:27:57.811Z,8.27
2023-01-25T05:30:54.762Z,7.65
2023-01-25T05:33:26.597Z,7.85
2023-01-25T05:35:56.283Z,8.00
2023-01-25T05:38:25.013Z,8.88
2023-01-25T05:40:52.837Z,8.85
2023-01-25T05:43:20.743Z,6.65
2023-01-25T05:45:54.040Z,8.50
2023-01-25T05:48:22.053Z,9.20
2023-01-25T05:50:50.041Z,8.35
2023-01-25T05:53:27.089Z,8.00
2023-01-25T05:55:55.170Z,8.50
2023-01-25T05:58:23.723Z,8.25
2023-01-25T06:00:51.587Z,7.82
2023-01-25T06:03:38.506Z,8.10
2023-01-25T06:06:07.022Z,7.30
2023-01-25T06:08:37.483Z,7.03
2023-01-25T06:11:08.775Z,7.55
2023-01-25T06:13:38.228Z,7.28
2023-01-25T06:16:06.970Z,7.15
2023-01-25T06:18:44.683Z,7.15
2023-01-25T06:21:24.745Z,7.85
2023-01-25T06:23:54.105Z,6.78
2023-01-25T06:26:22.007Z,7.70
2023-01-25T06:28:50.688Z,8.27
2023-01-25T06:31:20.069Z,7.90
2023-01-25T06:33:50.140Z,8.48
2023-01-25T06:36:21.324Z,8.98
2023-01-25T06:38:50.438Z,8.60
2023-01-25T06:41:20.542Z,9.02
2023-01-25T06:43:50.892Z,8.75
2023-01-25T06:46:19.638Z,9.02
2023-01-25T06:48:47.508Z,9.63
2023-01-25T06:51:16.675Z,9.40
2023-01-25T06:53:46.624Z,9.52
2023-01-25T06:56:17.597Z,10.18
2023-01-25T06:58:47.554Z,9.50
2023-01-25T07:01:19.800Z,10.82
2023-01-25T07:03:49.542Z,10.90
2023-01-25T07:06:17.486Z,9.85
2023-01-25T07:08:45.630Z,10.60
2023-01-25T07:11:14.488Z,10.02
2023-01-25T07:13:43.747Z,10.40
2023-01-25T07:16:15.547Z,9.80
2023-01-25T07:18:43.476Z,9.13
2023-01-25T07:21:13.641Z,10.20
2023-01-25T07:23:41.923Z,8.75
2023-01-25T07:26:16.583Z,10.32
2023-01-25T07:28:44.769Z,11.02
2023-01-25T07:31:14.535Z,10.27
2023-01-25T07:33:42.797Z,10.07
2023-01-25T07:36:12.173Z,9.63
2023-01-25T07:38:40.728Z,11.10
2023-01-25T07:41:08.737Z,11.27
2023-01-25T07:43:36.632Z,11.93
2023-01-25T07:46:07.062Z,11.65
2023-01-25T07:48:36.321Z,11.25
2023-01-25T07:51:22.491Z,11.05
2023-01-25T07:53:52.266Z,10.60
2023-01-25T07:56:20.795Z,10.50
2023-01-25T07:58:48.903Z,11.38
2023-01-25T08:01:19.551Z,11.50
2023-01-25T08:03:49.628Z,11.43
2023-01-25T08:06:17.639Z,11.35
2023-01-25T08:08:48.202Z,10.70
2023-01-25T08:11:18.698Z,11.13
2023-01-25T08:13:46.981Z,10.68
2023-01-25T08:16:15.320Z,10.75
2023-01-25T08:18:43.236Z,11.05
2023-01-25T08:21:12.486Z,10.05
2023-01-25T08:23:40.376Z,10.80
2023-01-25T08:26:10.578Z,10.55
2023-01-25T08:28:38.605Z,11.30
2023-01-25T08:31:08.130Z,10.75
2023-01-25T08:33:36.695Z,9.65
2023-01-25T08:36:05.417Z,10.05
2023-01-25T08:38:34.831Z,9.40
2023-01-25T08:41:07.004Z,9.48
2023-01-25T08:43:35.356Z,10.35
2023-01-25T08:46:03.565Z,10.23
2023-01-25T08:48:31.804Z,10.32
2023-01-25T08:51:00.070Z,10.90
2023-01-25T08:53:28.649Z,11.43
2023-01-25T08:55:57.915Z,11.40
2023-01-25T08:58:25.826Z,10.95
2023-01-25T09:00:53.676Z,10.32
2023-01-25T09:03:22.278Z,10.52
2023-01-25T09:05:50.183Z,11.57
2023-01-25T09:08:18.037Z,10.77
2023-01-25T09:10:45.923Z,11.30
2023-01-25T09:13:15.474Z,10.77
2023-01-25T09:15:43.460Z,10.68
2023-01-25T09:18:11.830Z,10.38
2023-01-25T09:20:40.587Z,10.63
2023-01-25T09:23:08.658Z,11.45
2023-01-25T09:25:36.814Z,11.85
2023-01-25T09:28:11.403Z,11.40
2023-01-25T09:30:48.469Z,11.63
2023-01-25T09:33:28.359Z,11.00
2023-01-25T09:35:56.709Z,10.98
2023-01-25T09:38:25.538Z,10.98
2023-01-25T09:41:07.314Z,10.13
2023-01-25T09:43:56.792Z,10.55
2023-01-25T09:46:31.685Z,10.20
2023-01-25T09:49:10.397Z,10.75
2023-01-25T09:51:54.840Z,10.32
2023-01-25T09:54:24.286Z,11.88
2023-01-25T09:56:53.300Z,12.30
2023-01-25T09:59:30.550Z,11.77
2023-01-25T10:02:15.960Z,12.15
2023-01-25T10:04:46.958Z,11.23
2023-01-25T10:07:21.246Z,10.48
2023-01-25T10:09:56.213Z,10.82
2023-01-25T10:12:26.252Z,11.18
2023-01-25T10:14:54.263Z,10.20
2023-01-25T10:17:36.573Z,9.90
2023-01-25T10:20:16.281Z,10.43
2023-01-25T10:22:50.080Z,10.13
2023-01-25T10:25:26.103Z,9.50
2023-01-25T10:28:30.172Z,11.13
2023-01-25T10:31:02.234Z,11.50
2023-01-25T10:33:36.318Z,11.60
2023-01-25T10:36:06.480Z,13.07
2023-01-25T10:38:39.074Z,13.25
2023-01-25T10:41:11.998Z,13.38
2023-01-25T10:43:39.971Z,14.23
2023-01-25T10:46:20.369Z,13.35
2023-01-25T10:48:49.804Z,12.57
2023-01-25T10:51:32.294Z,11.90
2023-01-25T10:54:03.636Z,12.20
2023-01-25T10:56:33.980Z,13.82
2023-01-25T10:59:17.461Z,13.05
2023-01-25T11:04:36.019Z,12.88
2023-01-25T11:07:06.140Z,12.52
2023-01-25T11:09:36.973Z,12.38
2023-01-25T11:12:16.603Z,14.82
2023-01-25T11:14:44.670Z,12.43
2023-01-25T11:17:25.231Z,13.38
2023-01-25T11:20:16.075Z,13.23
2023-01-25T11:22:52.040Z,12.27
2023-01-25T11:25:31.608Z,13.90
2023-01-25T11:28:12.576Z,13.10
2023-01-25T11:30:40.524Z,13.85
2023-01-25T11:33:12.766Z,14.55
2023-01-25T11:36:08.482Z,15.63
2023-01-25T11:38:36.893Z,14.95
2023-01-25T11:41:12.315Z,15.25
2023-01-25T11:44:00.517Z,13.45
2023-01-25T11:46:47.211Z,13.63
2023-01-25T11:49:46.266Z,13.30
2023-01-25T11:52:32.651Z,12.18
2023-01-25T11:55:14.025Z,14.23
2023-01-25T11:58:11.512Z,13.90
2023-01-25T12:01:04.553Z,13.52
2023-01-25T12:04:01.967Z,12.80
2023-01-25T12:06:41.012Z,14.90
2023-01-25T12:09:26.583Z,15.40
2023-01-25T12:12:07.062Z,16.02
2023-01-25T12:14:46.750Z,15.25
2023-01-25T12:17:33.084Z,15.13
2023-01-25T12:20:22.471Z,14.65
2023-01-25T12:23:10.067Z,14.45
2023-01-25T12:25:51.888Z,14.90
2023-01-25T12:28:23.936Z,16.13
2023-01-25T12:30:56.545Z,15.27
2023-01-25T12:33:29.227Z,14.73
2023-01-25T12:36:04.106Z,15.25
2023-01-25T12:38:39.200Z,14.27
2023-01-25T12:41:20.102Z,14.60
2023-01-25T12:43:53.338Z,14.07
2023-01-25T12:48:56.020Z,13.57
2023-01-25T12:51:27.412Z,14.88
2023-01-25T12:53:57.207Z,14.65
2023-01-25T12:56:40.673Z,15.10
2023-01-25T13:01:46.596Z,14.57
2023-01-25T13:04:32.814Z,14.05
2023-01-25T13:07:11.187Z,14.32
2023-01-25T13:09:46.439Z,13.95
2023-01-25T13:12:15.816Z,14.40
2023-01-25T13:14:44.049Z,12.50
2023-01-25T13:17:22.120Z,14.90
2023-01-25T13:19:50.414Z,13.52
2023-01-25T13:22:58.518Z,14.02
2023-01-25T13:25:28.393Z,13.65
2023-01-25T13:28:35.415Z,13.43
2023-01-25T13:31:04.892Z,14.60
2023-01-25T13:33:36.780Z,16.48
2023-01-25T13:36:46.656Z,15.45
2023-01-25T13:39:43.049Z,16.23
2023-01-25T13:42:21.784Z,15.07
2023-01-25T13:44:51.954Z,14.13
2023-01-25T13:47:23.767Z,14.70
2023-01-25T13:49:57.887Z,14.50
2023-01-25T13:52:27.147Z,14.77
2023-01-25T13:54:57.190Z,13.32
2023-01-25T13:57:27.933Z,15.55
2023-01-25T14:00:10.684Z,15.02
2023-01-25T14:02:41.545Z,15.60
2023-01-25T14:05:19.890Z,15.05
2023-01-25T14:07:50.028Z,13.77
2023-01-25T14:10:23.419Z,14.65
2023-01-25T14:12:52.919Z,14.60
2023-01-25T14:15:24.679Z,15.27
2023-01-25T14:18:12.318Z,14.73
2023-01-25T14:20:40.254Z,14.63
2023-01-25T14:23:22.316Z,14.32
2023-01-25T14:25:50.554Z,14.32
2023-01-25T14:28:19.208Z,14.75
2023-01-25T14:30:52.002Z,14.40
2023-01-25T14:33:25.602Z,14.05
2023-01-25T14:35:58.481Z,13.90
2023-01-25T14:38:31.946Z,13.23
2023-01-25T14:41:04.503Z,11.93
2023-01-25T14:43:33.418Z,12.80
2023-01-25T14:46:01.519Z,12.77
2023-01-25T14:48:42.417Z,12.63
2023-01-25T14:51:17.383Z,13.20
2023-01-25T14:53:49.299Z,13.57
2023-01-25T14:56:33.993Z,12.85
2023-01-25T14:59:02.397Z,12.70
2023-01-25T15:01:33.927Z,13.30
2023-01-25T15:04:03.748Z,13.23
2023-01-25T15:06:31.586Z,13.38
2023-01-25T15:08:59.562Z,14.07
2023-01-25T15:11:38.687Z,13.80
2023-01-25T15:14:17.549Z,14.30
2023-01-25T15:16:46.278Z,12.48
2023-01-25T15:19:29.964Z,12.90
2023-01-25T15:21:59.965Z,12.52
2023-01-25T15:24:28.495Z,12.35
2023-01-25T15:26:57.209Z,9.95
2023-01-25T15:29:27.541Z,10.77
2023-01-25T15:31:57.270Z,11.82
2023-01-25T15:34:29.279Z,11.93
2023-01-25T15:36:58.524Z,10.18
2023-01-25T15:39:27.782Z,10.13
2023-01-25T15:41:55.878Z,11.00
2023-01-25T15:44:23.731Z,11.55
2023-01-25T15:46:53.521Z,10.43
2023-01-25T15:49:26.243Z,11.32
2023-01-25T15:51:54.162Z,10.38
2023-01-25T15:54:24.274Z,10.20
2023-01-25T15:56:55.771Z,10.60
2023-01-25T15:59:23.855Z,11.13
2023-01-25T16:01:51.734Z,10.32
2023-01-25T16:04:19.591Z,10.88
2023-01-25T16:06:50.206Z,10.63
2023-01-25T16:09:21.387Z,11.45
2023-01-25T16:11:54.092Z,11.75
2023-01-25T16:14:23.641Z,11.38
2023-01-25T16:16:53.334Z,12.50
2023-01-25T16:19:23.012Z,11.05
2023-01-25T16:21:51.562Z,11.90
2023-01-25T16:24:19.535Z,12.02
2023-01-25T16:26:52.467Z,11.30
2023-01-25T16:29:20.507Z,10.82
2023-01-25T16:31:48.386Z,11.48
2023-01-25T16:34:16.347Z,11.95
2023-01-25T16:36:50.027Z,11.88
2023-01-25T16:39:20.547Z,10.13
2023-01-25T16:41:48.773Z,10.77
2023-01-25T16:44:18.657Z,11.75
2023-01-25T16:46:47.478Z,10.80
2023-01-25T16:49:18.149Z,10.57
2023-01-25T16:51:46.364Z,12.07
2023-01-25T16:54:14.244Z,11.43
2023-01-25T16:56:42.122Z,11.38
2023-01-25T16:59:12.056Z,10.80
2023-01-25T17:01:41.715Z,11.15
2023-01-25T17:04:10.944Z,11.55
2023-01-25T17:06:42.870Z,10.63
2023-01-25T17:09:22.911Z,11.43
2023-01-25T17:11:52.061Z,10.13
2023-01-25T17:14:20.220Z,9.85
2023-01-25T17:16:51.892Z,10.05
2023-01-25T17:19:20.988Z,11.30
2023-01-25T17:21:49.605Z,9.70
2023-01-25T17:24:22.145Z,9.10
2023-01-25T17:26:50.898Z,8.98
2023-01-25T17:29:18.967Z,9.10
2023-01-25T17:31:47.103Z,8.90
2023-01-25T17:34:19.198Z,9.38
2023-01-25T17:36:47.836Z,9.80
2023-01-25T17:39:18.151Z,9.45
2023-01-25T17:41:47.753Z,10.52
2023-01-25T17:44:20.400Z,10.68
2023-01-25T17:46:49.176Z,10.60
2023-01-25T17:49:19.034Z,11.18
2023-01-25T17:51:47.643Z,10.48
2023-01-25T17:54:15.908Z,10.68
2023-01-25T17:56:43.863Z,10.00
2023-01-25T17:59:11.911Z,11.43
2023-01-25T18:01:42.892Z,9.77
2023-01-25T18:04:13.157Z,11.32
2023-01-25T18:06:42.661Z,11.15
2023-01-25T18:09:11.023Z,10.60
2023-01-25T18:11:40.828Z,11.95
2023-01-25T18:14:12.070Z,11.20
2023-01-25T18:16:44.707Z,11.10
2023-01-25T18:19:12.999Z,9.88
2023-01-25T18:21:43.275Z,10.85
2023-01-25T18:24:25.932Z,10.65
2023-01-25T18:27:00.029Z,10.33
2023-01-25T18:29:40.621Z,10.07
2023-01-25T18:32:08.871Z,10.48
2023-01-25T18:34:36.834Z,10.73
2023-01-25T18:37:18.817Z,11.20
2023-01-25T18:39:47.303Z,10.93
2023-01-25T18:42:15.379Z,10.25
2023-01-25T18:44:48.074Z,11.02
2023-01-25T18:47:18.565Z,9.60
2023-01-25T18:49:46.855Z,9.45
2023-01-25T18:52:16.702Z,9.43
2023-01-25T18:54:47.391Z,10.30
2023-01-25T18:57:25.195Z,11.35
2023-01-25T18:59:53.814Z,10.70
2023-01-25T19:02:23.161Z,11.35
2023-01-25T19:04:51.177Z,10.13
2023-01-25T19:07:20.498Z,10.00
2023-01-25T19:09:48.414Z,10.70
2023-01-25T19:12:16.415Z,11.45
2023-01-25T19:14:44.581Z,10.73
2023-01-25T19:17:12.531Z,10.45
2023-01-25T19:19:40.475Z,13.07
2023-01-25T19:22:08.419Z,10.02
2023-01-25T19:24:37.742Z,11.55
2023-01-25T19:27:05.717Z,10.40
2023-01-25T19:29:33.739Z,10.85
2023-01-25T19:32:01.745Z,10.70
2023-01-25T19:34:29.675Z,10.88
2023-01-25T19:36:58.243Z,9.80
2023-01-25T19:39:26.199Z,10.18
2023-01-25T19:41:55.814Z,9.02
2023-01-25T19:44:24.917Z,9.02
2023-01-25T19:46:53.248Z,9.10
2023-01-25T19:49:22.368Z,9.50
2023-01-25T19:51:53.251Z,8.30
2023-01-25T19:54:21.850Z,8.77
2023-01-25T19:56:51.100Z,7.75
2023-01-25T19:59:22.020Z,8.75
2023-01-25T20:01:50.246Z,8.73
2023-01-25T20:04:20.946Z,7.65
2023-01-25T20:06:49.867Z,8.77
2023-01-25T20:09:20.229Z,8.30
2023-01-25T20:11:48.405Z,8.68
2023-01-25T20:14:16.744Z,7.95
2023-01-25T20:16:47.163Z,8.43
2023-01-25T20:19:15.163Z,9.02
2023-01-25T20:21:43.067Z,10.00
2023-01-25T20:24:11.580Z,8.32
2023-01-25T20:26:42.937Z,8.60
2023-01-25T20:29:14.658Z,9.50
2023-01-25T20:31:44.576Z,9.02
2023-01-25T20:34:16.961Z,8.05
2023-01-25T20:36:45.561Z,8.60
2023-01-25T20:39:15.130Z,8.15
2023-01-25T20:41:43.294Z,8.40
2023-01-25T20:44:14.253Z,8.95
2023-01-25T20:46:43.423Z,9.20
2023-01-25T20:49:15.510Z,9.30
2023-01-25T20:51:44.182Z,9.13
2023-01-25T20:54:14.739Z,8.55
2023-01-25T20:56:48.118Z,9.48
2023-01-25T20:59:19.132Z,9.15
2023-01-25T21:01:47.278Z,9.05
2023-01-25T21:04:16.718Z,8.13
2023-01-25T21:06:44.720Z,9.45
2023-01-25T21:09:15.685Z,8.88
2023-01-25T21:11:43.786Z,9.15
2023-01-25T21:14:11.702Z,9.48
2023-01-25T21:16:39.710Z,8.95
2023-01-25T21:19:08.159Z,7.63
2023-01-25T21:21:38.530Z,8.35
2023-01-25T21:24:07.492Z,8.25
2023-01-25T21:26:38.216Z,8.35
2023-01-25T21:29:07.960Z,8.20
2023-01-25T21:31:37.989Z,8.00
2023-01-25T21:34:09.187Z,8.10
2023-01-25T21:36:38.813Z,8.60
2023-01-25T21:39:06.865Z,8.02
2023-01-25T21:41:34.910Z,8.30
2023-01-25T21:44:21.320Z,8.93
2023-01-25T21:47:16.348Z,9.10
2023-01-25T21:49:54.806Z,8.75
2023-01-25T21:52:24.142Z,9.23
2023-01-25T21:54:52.076Z,8.90
2023-01-25T21:57:20.518Z,9.80
2023-01-25T21:59:49.198Z,8.88
2023-01-25T22:02:17.359Z,8.43
2023-01-25T22:04:45.563Z,9.30
2023-01-25T22:07:13.721Z,8.90
2023-01-25T22:09:43.174Z,9.15
2023-01-25T22:12:12.548Z,8.15
2023-01-25T22:14:40.632Z,8.07
2023-01-25T22:17:08.748Z,7.65
2023-01-25T22:19:36.767Z,8.20
2023-01-25T22:22:04.886Z,8.65
2023-01-25T22:24:33.005Z,9.00
2023-01-25T22:27:32.997Z,9.27
2023-01-25T22:30:01.041Z,8.65
2023-01-25T22:32:29.240Z,9.18
2023-01-25T22:34:57.192Z,8.18
2023-01-25T22:37:25.240Z,8.20
2023-01-25T22:39:54.502Z,9.00
2023-01-25T22:42:23.989Z,9.48
2023-01-25T22:44:52.479Z,7.75
2023-01-25T22:47:20.661Z,8.50
2023-01-25T22:49:48.728Z,9.50
2023-01-25T22:52:16.875Z,9.50
2023-01-25T22:54:45.069Z,9.48
2023-01-25T22:57:13.068Z,9.30
2023-01-25T22:59:42.539Z,9.35
2023-01-25T23:02:10.650Z,8.57
2023-01-25T23:04:38.800Z,9.88
2023-01-25T23:07:12.743Z,8.75
2023-01-25T23:09:41.455Z,9.35
2023-01-25T23:12:09.595Z,9.57
2023-01-25T23:14:51.336Z,9.77
2023-01-25T23:17:39.393Z,9.27
2023-01-25T23:20:09.586Z,9.38
2023-01-25T23:22:37.830Z,9.43
2023-01-25T23:25:07.136Z,9.45
2023-01-25T23:27:35.198Z,8.75
2023-01-25T23:30:03.290Z,8.80
2023-01-25T23:32:32.731Z,8.93
2023-01-25T23:35:00.698Z,9.18
2023-01-25T23:37:28.589Z,9.98
2023-01-25T23:39:56.427Z,9.70
2023-01-25T23:42:24.266Z,9.43
2023-01-25T23:44:52.228Z,10.93
2023-01-25T23:47:20.113Z,10.18
2023-01-25T23:49:49.355Z,10.63
2023-01-25T23:52:17.256Z,10.38
2023-01-25T23:54:45.128Z,10.23
2023-01-25T23:57:13.008Z,9.85
2023-01-25T23:59:40.887Z,10.85
